地図

経路データ

SID SEASON NUMBER BASIN SUBBASIN NAME ISO_TIME NATURE LAT LON WMO_WIND WMO_PRES WMO_AGENCY TRACK_TYPE DIST2LAND LANDFALL IFLAG USA_AGENCY USA_ATCF_ID USA_LAT USA_LON USA_RECORD USA_STATUS USA_WIND USA_PRES USA_SSHS USA_R34_NE USA_R34_SE USA_R34_SW USA_R34_NW USA_R50_NE USA_R50_SE USA_R50_SW USA_R50_NW USA_R64_NE USA_R64_SE USA_R64_SW USA_R64_NW USA_POCI USA_ROCI USA_RMW USA_EYE TOKYO_LAT TOKYO_LON TOKYO_GRADE TOKYO_WIND TOKYO_PRES TOKYO_R50_DIR TOKYO_R50_LONG TOKYO_R50_SHORT TOKYO_R30_DIR TOKYO_R30_LONG TOKYO_R30_SHORT TOKYO_LAND CMA_LAT CMA_LON CMA_CAT CMA_WIND CMA_PRES HKO_LAT HKO_LON HKO_CAT HKO_WIND HKO_PRES NEWDELHI_LAT NEWDELHI_LON NEWDELHI_GRADE NEWDELHI_WIND NEWDELHI_PRES NEWDELHI_CI NEWDELHI_DP NEWDELHI_POCI REUNION_LAT REUNION_LON REUNION_TYPE REUNION_WIND REUNION_PRES REUNION_TNUM REUNION_CI REUNION_RMW REUNION_R34_NE REUNION_R34_SE REUNION_R34_SW REUNION_R34_NW REUNION_R50_NE REUNION_R50_SE REUNION_R50_SW REUNION_R50_NW REUNION_R64_NE REUNION_R64_SE REUNION_R64_SW REUNION_R64_NW BOM_LAT BOM_LON BOM_TYPE BOM_WIND BOM_PRES BOM_TNUM BOM_CI BOM_RMW BOM_R34_NE BOM_R34_SE BOM_R34_SW BOM_R34_NW BOM_R50_NE BOM_R50_SE BOM_R50_SW BOM_R50_NW BOM_R64_NE BOM_R64_SE BOM_R64_SW BOM_R64_NW BOM_ROCI BOM_POCI BOM_EYE BOM_POS_METHOD BOM_PRES_METHOD NADI_LAT NADI_LON NADI_CAT NADI_WIND NADI_PRES WELLINGTON_LAT WELLINGTON_LON WELLINGTON_WIND WELLINGTON_PRES DS824_LAT DS824_LON DS824_STAGE DS824_WIND DS824_PRES TD9636_LAT TD9636_LON TD9636_STAGE TD9636_WIND TD9636_PRES TD9635_LAT TD9635_LON TD9635_WIND TD9635_PRES TD9635_ROCI NEUMANN_LAT NEUMANN_LON NEUMANN_CLASS NEUMANN_WIND NEUMANN_PRES MLC_LAT MLC_LON MLC_CLASS MLC_WIND MLC_PRES USA_GUST BOM_GUST BOM_GUST_PER REUNION_GUST REUNION_GUST_PER USA_SEAHGT USA_SEARAD_NE USA_SEARAD_SE USA_SEARAD_SW USA_SEARAD_NW STORM_SPEED STORM_DIR
1922018S21172 1922 6 SP MM NOT_NAMED 1922-01-17 12:00:00 NR -21.4000 172.000 main 523 501 __________O___ -1 -21.4000 172.000 7 4 245
1922018S21172 1922 6 SP MM NOT_NAMED 1922-01-17 15:00:00 NR -21.4850 171.805 main 501 479 __________P___ -1 -21.4850 171.805 7 4 246
1922018S21172 1922 6 SP MM NOT_NAMED 1922-01-17 18:00:00 NR -21.5659 171.608 main 479 458 __________P___ -1 -21.5659 171.608 7 4 247
1922018S21172 1922 6 SP MM NOT_NAMED 1922-01-17 21:00:00 NR -21.6389 171.407 main 458 436 __________P___ -1 -21.6389 171.407 7 4 250
1922018S21172 1922 6 SP MM NOT_NAMED 1922-01-18 00:00:00 NR -21.7000 171.200 main 436 416 __________O___ -1 -21.7000 171.200 7 4 255
1922018S21172 1922 6 SP MM NOT_NAMED 1922-01-18 03:00:00 NR -21.7463 170.980 main 416 383 __________P___ -1 -21.7463 170.980 7 5 260
1922018S21172 1922 6 SP MM NOT_NAMED 1922-01-18 06:00:00 NR -21.7779 170.715 main 383 353 __________P___ -1 -21.7779 170.715 7 6 265
1922018S21172 1922 6 SP MM NOT_NAMED 1922-01-18 09:00:00 NR -21.7957 170.367 main 353 302 __________P___ -1 -21.7957 170.367 7 8 268
1922018S21172 1922 6 SP MM NOT_NAMED 1922-01-18 12:00:00 NR -21.8000 169.900 main 302 241 __________O___ -1 -21.8000 169.900 7 11 270
1922018S21172 1922 6 SP MM NOT_NAMED 1922-01-18 15:00:00 NR -21.8001 169.219 main 231 160 __________P___ -1 -21.8001 169.219 7 14 271
1922018S21172 1922 6 SP MM NOT_NAMED 1922-01-18 18:00:00 NR -21.7837 168.430 main 151 84 __________P___ -1 -21.7837 168.430 7 15 272
1922018S21172 1922 6 SP MM NOT_NAMED 1922-01-18 21:00:00 NR -21.7500 167.625 main 76 38 __________P___ -1 -21.7500 167.625 7 14 273
1922018S21172 1922 6 SP MM NOT_NAMED 1922-01-19 00:00:00 NR -21.7000 166.900 main 38 10 __________O___ -1 -21.7000 166.900 7 12 276
1922018S21172 1922 6 SP MM NOT_NAMED 1922-01-19 03:00:00 NR -21.6338 166.357 main 11 0 __________P___ -1 -21.6338 166.357 7 9 279
1922018S21172 1922 6 SP MM NOT_NAMED 1922-01-19 06:00:00 NR -21.5558 165.908 main 0 0 __________P___ -1 -21.5558 165.908 7 8 282
1922018S21172 1922 6 SP MM NOT_NAMED 1922-01-19 09:00:00 NR -21.4749 165.529 main 0 0 __________P___ -1 -21.4749 165.529 7 7 283
1922018S21172 1922 6 SP MM NOT_NAMED 1922-01-19 12:00:00 NR -21.4000 165.200 main 0 0 __________O___ -1 -21.4000 165.200 7 6 283
1922018S21172 1922 6 SP MM NOT_NAMED 1922-01-19 15:00:00 NR -21.3375 164.901 main 0 0 __________P___ -1 -21.3375 164.901 7 6 282
1922018S21172 1922 6 SP MM NOT_NAMED 1922-01-19 18:00:00 NR -21.2858 164.622 main 24 24 __________P___ -1 -21.2858 164.622 7 5 281
1922018S21172 1922 6 SP MM NOT_NAMED 1922-01-19 21:00:00 NR -21.2412 164.358 main 33 33 __________P___ -1 -21.2412 164.358 7 5 280
1922018S21172 1922 6 SP MM NOT_NAMED 1922-01-20 00:00:00 NR -21.2000 164.100 main 54 __________O___ -1 -21.2000 164.100 7 5 280

デジタル台風データ・検索

IBTrACS Databaseについて

本データベースは、米国NOAAが公開する1842年以降の世界の熱帯低気圧のベストトラックデータアーカイブInternational Best Track Archive for Climate Stewardship (IBTrACS)を、ウェブで閲覧しやすい形式に変換したものです。

最終更新日:2021-11-26